Time;durP1;ratioP1;P1;durP2;ratioP2;P2;SDS_P1;SDS_P2;PMS_P1;PMS_P2;Temp;Humidity;BMP_temperature;BMP_pressure;BME280_temperature;BME280_humidity;BME280_pressure;Samples;Min_cycle;Max_cycle;Signal;HPM_P1;HPM_P2
2023/04/19 07:18:27;;;;;;;23.88;13.35;;;;;;;9.07;81.25;97001.09;2084346;28;20561;-58
2023/04/19 07:20:54;;;;;;;19.83;11.80;;;;;;;9.07;81.99;97018.50;2086955;28;20554;-58
2023/04/19 07:23:18;;;;;;;20.45;13.07;;;;;;;9.21;81.06;97003.25;2090951;28;21085;-58
2023/04/19 07:25:39;;;;;;;25.42;14.10;;;;;;;9.41;79.87;97009.56;2083593;27;20568;-58
2023/04/19 07:26:40;;;;;;;23.70;13.00;;;;;;;9.32;80.14;97015.94;2080577;28;20226;-58
2023/04/19 07:29:01;;;;;;;21.80;13.73;;;;;;;9.50;80.45;97013.56;2086063;28;20571;-58
2023/04/19 07:31:20;;;;;;;23.55;14.25;;;;;;;9.60;80.34;97018.44;2083571;28;20569;-58
2023/04/19 07:32:21;;;;;;;23.13;14.35;;;;;;;9.63;80.01;97012.25;2083022;28;20202;-59
2023/04/19 07:33:26;;;;;;;23.75;15.13;;;;;;;9.72;79.32;97006.72;2079390;28;20202;-59
2023/04/19 07:34:28;;;;;;;25.02;14.48;;;;;;;9.85;79.20;97014.94;2081603;28;20235;-59
2023/04/19 07:35:30;;;;;;;25.63;14.38;;;;;;;10.01;78.64;97022.25;2073548;28;20214;-58
2023/04/19 07:36:33;;;;;;;26.70;13.85;;;;;;;10.07;78.54;97019.41;2069816;28;20561;-59
2023/04/19 07:37:35;;;;;;;19.70;12.85;;;;;;;10.11;77.79;97014.00;2073607;28;20204;-59
2023/04/19 07:38:36;;;;;;;27.98;15.07;;;;;;;10.21;76.84;97013.66;2072332;28;20583;-59
2023/04/19 07:39:38;;;;;;;21.77;14.40;;;;;;;10.11;76.95;97016.63;2075243;28;20201;-59
2023/04/19 07:40:39;;;;;;;19.40;13.80;;;;;;;10.25;77.88;97015.28;2072798;28;20252;-59
2023/04/19 07:41:41;;;;;;;22.58;13.57;;;;;;;10.34;76.36;97016.69;2072421;28;20801;-59
2023/04/19 07:42:43;;;;;;;20.17;13.57;;;;;;;10.64;75.64;97013.81;2069845;28;20196;-59
2023/04/19 07:43:44;;;;;;;24.80;13.65;;;;;;;10.24;76.63;97018.78;2072839;28;20206;-59
2023/04/19 07:44:46;;;;;;;22.65;13.93;;;;;;;10.52;75.23;97015.16;2072206;28;20261;-59
2023/04/19 07:45:47;;;;;;;19.55;12.85;;;;;;;10.81;74.74;97008.78;2067857;28;20696;-59
2023/04/19 07:46:48;;;;;;;20.42;12.57;;;;;;;11.20;74.51;97012.44;2069205;28;20225;-59
2023/04/19 07:47:50;;;;;;;19.20;12.27;;;;;;;11.31;73.24;96999.78;2072692;28;20718;-59
2023/04/19 07:48:51;;;;;;;20.67;12.90;;;;;;;11.91;71.59;97007.69;2073563;28;20201;-59
2023/04/19 07:49:54;;;;;;;25.45;11.88;;;;;;;12.33;70.41;97011.06;2073629;28;20577;-59
2023/04/19 07:50:56;;;;;;;22.90;11.38;;;;;;;12.48;69.45;97006.03;2070674;28;20284;-59
2023/04/19 07:51:57;;;;;;;24.00;10.93;;;;;;;11.54;70.15;97014.50;2073069;28;20207;-59
2023/04/19 07:52:59;;;;;;;20.95;12.70;;;;;;;11.19;71.34;97009.00;2070725;28;20208;-59
2023/04/19 07:54:00;;;;;;;20.33;12.27;;;;;;;11.56;71.64;97006.59;2067497;28;20256;-59
2023/04/19 07:55:02;;;;;;;19.20;12.02;;;;;;;11.96;69.53;97001.41;2066747;28;20202;-59
2023/04/19 07:56:04;;;;;;;25.13;11.93;;;;;;;11.42;70.52;97005.41;2064378;28;20264;-59
2023/04/19 07:57:05;;;;;;;20.23;12.80;;;;;;;10.61;72.51;97004.34;2069084;28;20206;-58
2023/04/19 07:58:06;;;;;;;18.35;11.27;;;;;;;11.18;72.03;97002.06;2068707;28;20241;-59
2023/04/19 07:59:08;;;;;;;17.77;11.23;;;;;;;11.45;71.37;96999.19;2067778;28;20713;-60
2023/04/19 08:00:11;;;;;;;20.55;11.75;;;;;;;11.75;70.32;96997.03;2067675;28;20280;-59
2023/04/19 08:01:13;;;;;;;21.80;11.15;;;;;;;12.24;70.08;96996.63;2067191;28;20190;-59
2023/04/19 08:02:16;;;;;;;15.57;10.40;;;;;;;11.91;69.60;96996.38;2069972;28;20213;-59
2023/04/19 08:03:17;;;;;;;17.20;11.07;;;;;;;11.97;69.72;96996.09;2074206;28;20204;-59
2023/04/19 08:04:21;;;;;;;20.13;12.10;;;;;;;12.68;68.58;96994.63;2075391;28;20235;-59
2023/04/19 08:05:23;;;;;;;23.00;12.05;;;;;;;11.93;68.68;96999.75;2070492;28;20233;-59
2023/04/19 08:06:25;;;;;;;19.35;11.68;;;;;;;12.32;68.89;96995.44;2069305;28;20227;-59
2023/04/19 08:07:27;;;;;;;17.83;10.85;;;;;;;12.50;68.82;96993.72;2068784;28;20205;-59
2023/04/19 08:08:28;;;;;;;17.80;11.50;;;;;;;12.29;69.42;96993.81;2068398;28;20198;-59
2023/04/19 08:09:32;;;;;;;16.15;10.93;;;;;;;12.27;69.20;96992.19;2069740;28;20209;-59
2023/04/19 08:10:34;;;;;;;19.88;11.57;;;;;;;12.09;68.92;96992.94;2066372;28;20580;-59
2023/04/19 08:11:36;;;;;;;19.30;12.07;;;;;;;12.18;69.51;96988.22;2074846;28;20210;-59
2023/04/19 08:12:38;;;;;;;17.60;10.90;;;;;;;12.63;69.20;96994.00;2067936;28;20816;-59
2023/04/19 08:13:57;;;;;;;20.50;11.30;;;;;;;12.90;67.87;96997.09;2067723;28;20207;-59
2023/04/19 08:15:15;;;;;;;16.27;10.23;;;;;;;12.89;67.31;96992.75;2072245;28;20248;-59
2023/04/19 08:16:20;;;;;;;20.48;9.77;;;;;;;13.01;67.06;96986.06;2070299;28;20618;-61
2023/04/19 08:17:42;;;;;;;15.80;10.10;;;;;;;12.90;67.21;96982.19;2070991;28;20638;-62
2023/04/19 08:18:47;;;;;;;19.80;11.20;;;;;;;13.01;66.64;96986.06;2071154;28;20340;-61
2023/04/19 08:19:49;;;;;;;20.88;10.25;;;;;;;12.96;67.10;96983.66;2072339;28;20284;-61
2023/04/19 08:20:51;;;;;;;14.27;10.00;;;;;;;13.13;65.49;96982.84;2070790;28;20372;-61
2023/04/19 08:21:52;;;;;;;17.10;10.02;;;;;;;13.21;65.49;96988.53;2072095;28;20205;-61
2023/04/19 08:22:53;;;;;;;12.43;8.93;;;;;;;13.53;65.24;96980.88;2071879;28;20209;-61
2023/04/19 08:23:55;;;;;;;16.52;10.60;;;;;;;13.12;65.85;96986.38;2072400;28;20266;-61
2023/04/19 08:24:56;;;;;;;16.65;10.45;;;;;;;13.23;64.04;96978.84;2070544;28;20205;-61
2023/04/19 08:25:58;;;;;;;13.10;9.30;;;;;;;13.05;64.68;96987.59;2073428;28;20197;-61
2023/04/19 08:27:00;;;;;;;13.10;9.23;;;;;;;13.18;65.08;96982.59;2071604;28;20556;-61
2023/04/19 08:28:01;;;;;;;14.45;8.55;;;;;;;12.98;64.11;96973.97;2070724;28;20210;-61
2023/04/19 08:29:03;;;;;;;14.52;8.25;;;;;;;13.15;63.93;96985.38;2068495;28;20276;-61
2023/04/19 08:30:06;;;;;;;12.60;8.25;;;;;;;13.20;64.39;96983.38;2068008;28;20220;-61
2023/04/19 08:31:08;;;;;;;14.45;8.40;;;;;;;13.17;64.42;96992.25;2065770;28;20226;-61
2023/04/19 08:32:11;;;;;;;13.40;9.00;;;;;;;13.28;63.68;96985.63;2070315;28;20209;-61
2023/04/19 08:33:12;;;;;;;17.83;9.32;;;;;;;12.79;64.88;96983.66;2069224;28;20540;-61
2023/04/19 08:34:14;;;;;;;13.48;8.30;;;;;;;13.10;64.94;96975.13;2070864;28;20654;-61
2023/04/19 08:35:16;;;;;;;16.65;8.77;;;;;;;13.38;64.57;96985.13;2073806;28;20225;-61
2023/04/19 08:36:17;;;;;;;11.52;8.05;;;;;;;13.30;64.26;96975.91;2071017;28;20229;-62
2023/04/19 08:37:29;;;;;;;13.65;8.93;;;;;;;12.60;65.11;96983.69;2066378;28;20255;-61
2023/04/19 08:38:30;;;;;;;15.55;9.70;;;;;;;12.53;65.25;96986.59;2069565;28;20208;-61
2023/04/19 08:39:33;;;;;;;13.75;9.05;;;;;;;12.67;64.98;96980.69;2071795;28;20209;-61
2023/04/19 08:40:40;;;;;;;14.05;8.30;;;;;;;12.69;64.69;96983.22;2070788;28;20280;-61
2023/04/19 08:41:41;;;;;;;16.00;8.80;;;;;;;11.66;65.35;96966.03;2073168;28;20194;-61
2023/04/19 08:42:46;;;;;;;16.60;9.35;;;;;;;11.84;66.62;96979.22;2065342;28;20202;-61
2023/04/19 08:43:51;;;;;;;15.57;9.57;;;;;;;12.38;65.88;96982.06;2068666;28;20217;-61
2023/04/19 08:44:56;;;;;;;13.77;8.38;;;;;;;12.34;66.13;96980.50;2068498;28;20279;-61
2023/04/19 08:46:18;;;;;;;13.48;8.35;;;;;;;12.22;65.82;96974.06;2066249;28;20206;-61
2023/04/19 08:47:20;;;;;;;17.83;9.00;;;;;;;12.51;65.97;96983.19;2066194;28;20238;-61
2023/04/19 08:48:34;;;;;;;13.38;8.35;;;;;;;12.56;65.58;96977.72;2065357;28;20202;-60
2023/04/19 08:49:38;;;;;;;14.82;9.15;;;;;;;12.53;65.42;96976.09;2066254;28;20217;-60
2023/04/19 08:50:47;;;;;;;12.05;8.27;;;;;;;12.61;64.47;96967.88;2066498;28;20223;-61
2023/04/19 08:52:07;;;;;;;14.93;9.60;;;;;;;12.71;64.30;96971.75;2060967;28;20193;-61
2023/04/19 08:53:09;;;;;;;13.55;8.25;;;;;;;12.78;63.88;96968.84;2062350;28;20210;-61
2023/04/19 08:54:15;;;;;;;11.63;8.07;;;;;;;12.98;64.06;96971.34;2065489;28;20554;-61
2023/04/19 08:55:17;;;;;;;14.35;8.45;;;;;;;13.09;64.00;96965.56;2063811;28;20226;-60
2023/04/19 08:56:18;;;;;;;11.95;8.32;;;;;;;12.86;64.26;96967.56;2062496;28;20225;-61
2023/04/19 08:57:33;;;;;;;15.05;10.65;;;;;;;12.72;65.79;96969.97;2067300;28;20197;-61
2023/04/19 08:58:35;;;;;;;16.25;9.43;;;;;;;12.78;65.09;96960.97;2068300;28;20893;-61
2023/04/19 08:59:57;;;;;;;15.35;9.85;;;;;;;12.66;64.88;96965.88;2065837;28;20232;-61
2023/04/19 09:00:59;;;;;;;14.63;9.68;;;;;;;13.10;64.18;96977.72;2064051;28;20236;-61
2023/04/19 09:02:01;;;;;;;17.38;9.77;;;;;;;13.37;63.70;96962.44;2062463;28;20313;-61
2023/04/19 09:03:03;;;;;;;13.23;8.93;;;;;;;12.96;62.43;96959.22;2060112;28;20952;-61
2023/04/19 09:04:06;;;;;;;16.58;8.52;;;;;;;13.53;62.91;96965.13;2065038;28;20305;-61
2023/04/19 09:05:28;;;;;;;14.90;9.05;;;;;;;13.73;63.01;96965.84;2061781;28;20310;-61
2023/04/19 09:06:35;;;;;;;18.92;10.10;;;;;;;13.82;62.86;96970.63;2062197;28;20842;-61
2023/04/19 09:07:37;;;;;;;14.70;9.38;;;;;;;13.80;62.43;96961.13;2060444;28;20329;-61
2023/04/19 09:08:39;;;;;;;14.32;9.30;;;;;;;13.96;61.70;96966.44;2060443;28;20201;-61
2023/04/19 09:09:41;;;;;;;16.77;11.23;;;;;;;13.55;62.54;96965.03;2061291;28;20273;-61
2023/04/19 09:11:02;;;;;;;14.25;9.20;;;;;;;13.84;62.30;96968.78;2064564;28;20291;-61
2023/04/19 09:12:15;;;;;;;15.93;9.77;;;;;;;14.03;62.05;96967.81;2064055;28;20218;-61
2023/04/19 09:13:17;;;;;;;17.23;10.52;;;;;;;13.78;61.92;96957.75;2063501;28;20268;-61
2023/04/19 09:14:20;;;;;;;14.98;9.85;;;;;;;12.89;63.40;96963.94;2066838;28;20202;-61
2023/04/19 09:15:35;;;;;;;18.83;10.98;;;;;;;13.31;63.93;96954.84;2062071;28;20214;-61
2023/04/19 09:16:38;;;;;;;21.92;8.93;;;;;;;13.50;64.59;96964.44;2062672;28;20202;-61
2023/04/19 09:17:39;;;;;;;16.20;9.65;;;;;;;13.27;64.94;96961.19;2065744;28;20200;-61
2023/04/19 09:18:55;;;;;;;19.52;9.70;;;;;;;13.80;64.18;96958.50;2066654;28;20213;-61
2023/04/19 09:20:15;;;;;;;19.45;11.77;;;;;;;14.17;63.42;96961.78;2063475;28;20694;-61
2023/04/19 09:21:28;;;;;;;15.48;9.85;;;;;;;14.31;63.40;96963.66;2060480;28;20233;-61
2023/04/19 09:22:30;;;;;;;16.88;9.57;;;;;;;14.20;63.11;96962.47;2061564;28;20681;-61
2023/04/19 09:23:32;;;;;;;16.30;9.95;;;;;;;14.02;63.36;96960.84;2062883;28;20202;-61
2023/04/19 09:24:37;;;;;;;19.48;10.45;;;;;;;13.78;64.64;96965.63;2063442;28;20695;-61
2023/04/19 09:26:01;;;;;;;16.95;10.95;;;;;;;13.95;64.23;96965.56;2067182;28;20218;-61
2023/04/19 09:27:05;;;;;;;17.05;10.05;;;;;;;13.58;63.97;96961.41;2066525;28;20195;-61
2023/04/19 09:28:13;;;;;;;13.73;9.50;;;;;;;13.44;63.99;96954.25;2061180;28;20238;-61
2023/04/19 09:29:16;;;;;;;19.35;11.00;;;;;;;13.61;63.96;96956.88;2058774;28;20333;-61
2023/04/19 09:30:24;;;;;;;16.88;9.70;;;;;;;13.06;64.38;96956.09;2059667;28;20233;-61
2023/04/19 09:31:37;;;;;;;14.60;10.52;;;;;;;12.99;65.37;96969.56;2065746;28;20858;-61
2023/04/19 09:32:46;;;;;;;16.10;10.65;;;;;;;12.88;64.88;96957.81;2062201;28;20198;-61
2023/04/19 09:33:48;;;;;;;15.30;8.73;;;;;;;12.35;65.58;96951.59;2063514;28;20213;-61
2023/04/19 09:34:57;;;;;;;14.20;10.35;;;;;;;12.72;65.46;96959.50;2066011;28;20194;-61
2023/04/19 09:35:59;;;;;;;15.73;10.05;;;;;;;12.73;65.77;96950.72;2067074;28;20202;-61
2023/04/19 09:37:13;;;;;;;13.85;8.85;;;;;;;12.60;66.04;96952.25;2060745;28;20209;-61
2023/04/19 09:38:47;;;;;;;16.30;9.65;;;;;;;12.76;66.61;96954.94;2059540;28;20291;-61
2023/04/19 09:39:49;;;;;;;22.70;11.15;;;;;;;12.70;66.27;96949.09;2064514;28;20263;-61
2023/04/19 09:40:51;;;;;;;17.35;10.65;;;;;;;12.66;67.03;96949.31;2068152;28;20693;-61
2023/04/19 09:41:53;;;;;;;22.17;10.68;;;;;;;12.80;66.81;96957.38;2069116;28;20227;-61
2023/04/19 09:42:55;;;;;;;14.93;9.63;;;;;;;12.96;67.06;96954.00;2067971;28;20334;-61
2023/04/19 09:44:10;;;;;;;17.02;10.40;;;;;;;12.92;66.92;96948.03;2066795;28;20205;-61
2023/04/19 09:45:42;;;;;;;14.27;10.13;;;;;;;12.99;66.13;96949.44;2064678;28;20222;-61
2023/04/19 09:46:49;;;;;;;16.33;10.43;;;;;;;13.04;66.09;96944.81;2067122;28;20190;-61
2023/04/19 09:48:06;;;;;;;15.90;10.60;;;;;;;13.21;64.85;96949.22;2064524;28;20247;-60
2023/04/19 09:49:27;;;;;;;15.48;10.20;;;;;;;13.18;65.50;96946.75;2066816;28;20233;-61
2023/04/19 09:50:56;;;;;;;20.30;9.80;;;;;;;13.05;65.81;96951.75;2069035;28;20217;-61
2023/04/19 09:52:05;;;;;;;16.38;8.95;;;;;;;13.00;64.95;96942.41;2071269;28;20230;-61
2023/04/19 09:53:07;;;;;;;15.30;10.55;;;;;;;12.68;64.99;96944.84;2072890;28;20250;-60
2023/04/19 09:54:10;;;;;;;16.48;9.43;;;;;;;13.10;65.12;96942.81;2064656;28;20671;-60
2023/04/19 09:55:11;;;;;;;16.42;9.70;;;;;;;13.28;63.72;96944.53;2060847;28;20817;-60
2023/04/19 09:56:28;;;;;;;15.38;9.90;;;;;;;13.13;64.14;96938.28;2065548;28;20228;-61
2023/04/19 09:57:31;;;;;;;14.93;9.82;;;;;;;12.94;65.66;96940.09;2063143;28;20313;-60
2023/04/19 09:58:32;;;;;;;14.70;9.90;;;;;;;13.25;65.12;96905.31;2060988;28;20819;-60
2023/04/19 09:59:51;;;;;;;14.95;10.10;;;;;;;12.48;65.08;96927.47;2063803;28;20687;-61
2023/04/19 10:00:54;;;;;;;24.50;10.95;;;;;;;12.88;65.06;96931.63;2064695;28;20284;-61
2023/04/19 10:02:13;;;;;;;15.45;9.40;;;;;;;13.44;64.64;96926.25;2060924;28;20203;-60
2023/04/19 10:03:15;;;;;;;16.35;10.95;;;;;;;13.45;65.00;96925.31;2055923;28;20345;-60
2023/04/19 10:04:22;;;;;;;14.10;9.52;;;;;;;13.72;64.79;96930.03;2057018;28;20195;-60
2023/04/19 10:05:44;;;;;;;14.77;9.88;;;;;;;13.57;63.92;96929.06;2063870;28;20669;-60
2023/04/19 10:06:48;;;;;;;14.90;10.32;;;;;;;13.65;63.69;96926.03;2062267;28;20203;-60
2023/04/19 10:08:11;;;;;;;12.60;8.07;;;;;;;13.74;62.76;96933.44;2066054;28;20650;-61
2023/04/19 10:09:13;;;;;;;12.85;9.77;;;;;;;13.40;62.71;96932.56;2065523;28;20198;-61
2023/04/19 10:10:16;;;;;;;14.48;9.90;;;;;;;13.32;63.82;96929.44;2065308;28;20283;-60
2023/04/19 10:11:26;;;;;;;13.77;9.82;;;;;;;13.12;63.92;96925.25;2066128;28;20198;-60
2023/04/19 10:12:30;;;;;;;13.95;9.48;;;;;;;12.89;64.88;96924.63;2068461;28;20205;-60
2023/04/19 10:13:56;;;;;;;14.73;9.00;;;;;;;13.31;63.87;96930.41;2066600;28;20206;-60
2023/04/19 10:14:57;;;;;;;13.90;9.15;;;;;;;13.16;64.59;96932.84;2061246;28;20203;-60
2023/04/19 10:15:59;;;;;;;13.05;8.45;;;;;;;13.24;64.12;96921.97;2061481;28;20700;-61
2023/04/19 10:17:19;;;;;;;13.07;8.77;;;;;;;13.12;65.10;96917.38;2064689;28;20707;-60
2023/04/19 10:18:22;;;;;;;17.95;9.68;;;;;;;12.96;65.10;96927.78;2061554;28;20206;-60
2023/04/19 10:19:23;;;;;;;14.48;9.60;;;;;;;13.02;65.87;96930.09;2064342;28;20209;-61
2023/04/19 10:20:57;;;;;;;17.75;9.93;;;;;;;12.79;66.55;96929.44;2061259;28;20226;-60
2023/04/19 10:21:59;;;;;;;16.20;10.15;;;;;;;12.59;66.93;96925.19;2061102;28;20236;-60
2023/04/19 10:23:00;;;;;;;17.52;8.88;;;;;;;12.38;67.48;96922.69;2064651;28;20199;-61
2023/04/19 10:24:03;;;;;;;18.40;10.38;;;;;;;12.43;67.88;96921.59;2066055;28;20211;-60
2023/04/19 10:25:13;;;;;;;13.05;9.68;;;;;;;12.34;67.77;96922.88;2064170;28;20226;-60
2023/04/19 10:26:14;;;;;;;14.23;8.95;;;;;;;12.50;67.81;96916.00;2062763;28;20202;-60
2023/04/19 10:27:24;;;;;;;17.63;10.15;;;;;;;12.05;68.06;96920.72;2058496;28;20215;-60
2023/04/19 10:28:29;;;;;;;14.02;9.75;;;;;;;12.14;68.02;96918.56;2064000;28;20232;-60
2023/04/19 10:29:53;;;;;;;14.20;9.50;;;;;;;12.53;67.20;96918.47;2065300;28;20230;-60
2023/04/19 10:31:03;;;;;;;12.27;8.85;;;;;;;12.74;66.57;96919.19;2064751;28;20242;-60
2023/04/19 10:32:05;;;;;;;14.32;8.90;;;;;;;12.78;66.68;96921.69;2067530;28;20193;-60
2023/04/19 10:33:06;;;;;;;14.82;9.57;;;;;;;12.60;66.82;96915.56;2069452;28;20209;-60
2023/04/19 10:34:11;;;;;;;14.55;8.38;;;;;;;12.75;66.74;96920.06;2062185;28;20208;-61
2023/04/19 10:35:18;;;;;;;15.02;8.48;;;;;;;12.87;65.92;96905.50;2062930;28;20222;-61
2023/04/19 10:36:20;;;;;;;16.52;9.48;;;;;;;12.85;65.81;96910.81;2067281;28;20235;-60
2023/04/19 10:37:24;;;;;;;18.08;9.15;;;;;;;12.62;66.34;96905.84;2065180;28;20229;-60
2023/04/19 10:38:37;;;;;;;13.13;8.63;;;;;;;12.94;66.20;96917.38;2064189;28;20207;-60
2023/04/19 10:39:44;;;;;;;16.70;9.70;;;;;;;12.96;65.71;96902.41;2062622;28;20233;-61
2023/04/19 10:41:00;;;;;;;18.13;9.82;;;;;;;12.84;65.58;96919.59;2060077;28;20200;-60
2023/04/19 10:42:01;;;;;;;17.17;10.13;;;;;;;12.78;65.66;96919.88;2067019;28;20594;-60
2023/04/19 10:43:09;;;;;;;15.10;8.98;;;;;;;12.63;66.21;96913.63;2062516;28;20220;-60
2023/04/19 10:44:10;;;;;;;13.77;9.80;;;;;;;12.45;66.24;96909.28;2065169;28;20222;-61
2023/04/19 10:45:32;;;;;;;14.48;10.20;;;;;;;12.09;66.61;96916.19;2065784;28;20731;-60
2023/04/19 10:46:34;;;;;;;17.20;10.35;;;;;;;12.19;67.06;96912.22;2061811;28;20825;-60
2023/04/19 10:47:43;;;;;;;23.88;10.88;;;;;;;12.23;66.81;96905.91;2066428;28;20856;-60
2023/04/19 10:49:06;;;;;;;16.58;9.38;;;;;;;11.60;68.29;96909.63;2065054;28;20254;-60
2023/04/19 10:50:08;;;;;;;17.50;10.48;;;;;;;11.52;68.91;96906.50;2063377;28;20223;-61
2023/04/19 10:51:15;;;;;;;12.85;8.75;;;;;;;11.57;69.66;96898.47;2065790;28;20289;-60
2023/04/19 10:52:28;;;;;;;15.30;10.10;;;;;;;11.75;69.59;96902.84;2065262;28;20203;-60
2023/04/19 10:53:47;;;;;;;18.95;9.98;;;;;;;11.92;69.17;96898.59;2066987;28;20197;-60
2023/04/19 10:54:55;;;;;;;16.20;9.27;;;;;;;11.92;68.55;96902.09;2062220;28;20199;-60
2023/04/19 15:28:23;;;;;;;21.50;11.60;;;;;;;9.78;82.58;96684.88;2094634;27;20575;-58
2023/04/19 15:29:24;;;;;;;21.27;12.07;;;;;;;9.84;82.41;96700.28;2095252;28;20598;-57
2023/04/19 15:30:25;;;;;;;25.73;11.85;;;;;;;9.88;82.51;96693.16;2083587;28;20221;-60
2023/04/19 15:31:27;;;;;;;20.88;12.68;;;;;;;10.03;81.95;96704.72;2077657;28;20197;-60
2023/04/19 15:32:32;;;;;;;24.40;11.32;;;;;;;10.13;81.55;96695.59;2079870;28;20644;-60
2023/04/19 15:33:35;;;;;;;24.05;10.75;;;;;;;10.69;79.95;96693.25;2078259;28;20807;-60
2023/04/19 15:34:36;;;;;;;16.98;10.75;;;;;;;11.23;77.37;96685.59;2078081;28;20223;-57
2023/04/19 15:35:38;;;;;;;21.95;11.20;;;;;;;11.61;75.68;96693.38;2076845;28;20260;-57
2023/04/19 15:36:39;;;;;;;26.83;11.15;;;;;;;10.65;76.27;96692.53;2079152;28;20276;-57
2023/04/19 15:37:42;;;;;;;22.85;11.27;;;;;;;10.94;76.01;96687.78;2079960;28;20200;-57
2023/04/19 15:38:44;;;;;;;19.75;10.60;;;;;;;10.48;75.10;96661.94;2078437;28;20321;-57
2023/04/19 15:39:48;;;;;;;15.75;10.63;;;;;;;10.79;77.49;96694.53;2079179;28;20597;-58
2023/04/19 15:40:49;;;;;;;16.60;11.20;;;;;;;11.44;75.19;96681.13;2078154;28;20381;-58
2023/04/19 15:41:51;;;;;;;15.32;10.48;;;;;;;11.99;73.59;96685.47;2079909;28;20200;-58
2023/04/19 15:42:52;;;;;;;26.23;10.55;;;;;;;12.33;71.73;96688.13;2079035;28;20205;-57
2023/04/19 15:43:54;;;;;;;18.98;9.70;;;;;;;12.09;72.86;96691.09;2077621;28;20207;-57
2023/04/19 15:44:56;;;;;;;20.35;10.73;;;;;;;12.27;72.07;96689.31;2078079;28;20209;-58
2023/04/19 15:45:57;;;;;;;18.65;9.85;;;;;;;12.07;72.49;96690.31;2080054;28;20682;-58
2023/04/19 15:46:59;;;;;;;14.35;9.75;;;;;;;12.10;72.13;96687.56;2078953;28;20205;-57
2023/04/19 15:48:00;;;;;;;14.77;10.18;;;;;;;12.77;70.98;96689.38;2078530;28;20210;-58
2023/04/19 15:49:02;;;;;;;15.18;10.43;;;;;;;13.29;69.94;96688.34;2078640;28;20246;-58
2023/04/19 15:50:04;;;;;;;16.02;10.80;;;;;;;13.62;68.72;96688.28;2078444;28;20545;-58
2023/04/19 15:51:07;;;;;;;21.38;9.32;;;;;;;13.61;68.51;96685.75;2078345;28;20599;-57
2023/04/19 15:52:08;;;;;;;15.95;9.13;;;;;;;13.25;67.90;96689.47;2078654;28;20666;-58
2023/04/19 15:53:10;;;;;;;15.52;8.93;;;;;;;12.70;67.41;96694.94;2079248;28;20269;-58
2023/04/19 15:54:13;;;;;;;12.73;9.30;;;;;;;12.83;68.42;96689.91;2078522;28;20201;-58
2023/04/19 15:55:15;;;;;;;14.95;9.00;;;;;;;12.97;69.55;96683.94;2079272;28;20707;-58
2023/04/19 15:56:16;;;;;;;17.30;9.30;;;;;;;13.67;67.67;96682.78;2078898;28;20248;-58
2023/04/19 15:57:18;;;;;;;15.75;10.27;;;;;;;13.59;67.94;96685.84;2078846;28;20279;-58
2023/04/19 15:58:19;;;;;;;23.05;9.38;;;;;;;12.84;67.91;96683.75;2079385;28;20190;-58
2023/04/19 15:59:21;;;;;;;13.68;9.95;;;;;;;13.31;69.08;96687.34;2079050;28;20200;-58
2023/04/19 16:00:22;;;;;;;13.50;9.05;;;;;;;13.43;69.02;96687.63;2078975;28;20238;-58
2023/04/19 16:01:24;;;;;;;14.75;9.40;;;;;;;13.52;68.08;96674.00;2079608;28;20197;-58
2023/04/19 16:02:25;;;;;;;15.73;8.88;;;;;;;14.26;66.36;96688.16;2079604;28;20292;-58
2023/04/19 16:03:27;;;;;;;18.80;9.68;;;;;;;14.63;63.92;96688.59;2078508;28;20204;-58
2023/04/19 16:04:29;;;;;;;14.15;9.02;;;;;;;14.06;63.41;96680.59;2080276;28;20205;-58
2023/04/19 16:05:31;;;;;;;12.07;8.23;;;;;;;13.77;64.44;96680.50;2077463;28;20239;-58
2023/04/19 16:06:33;;;;;;;12.45;7.82;;;;;;;13.85;64.88;96680.88;2079802;28;20209;-58
2023/04/19 16:07:34;;;;;;;14.30;8.30;;;;;;;13.97;65.49;96679.34;2077752;28;20200;-58
2023/04/19 16:08:36;;;;;;;16.40;8.10;;;;;;;13.92;63.82;96682.22;2077447;28;20244;-58
2023/04/19 16:09:37;;;;;;;20.15;9.10;;;;;;;13.13;66.14;96676.09;2078742;28;20232;-58
2023/04/19 16:10:38;;;;;;;18.88;9.45;;;;;;;12.21;68.85;96664.31;2077718;28;20236;-58
2023/04/19 16:11:40;;;;;;;12.15;8.10;;;;;;;12.12;68.43;96671.78;2080049;28;20197;-58
2023/04/19 16:12:43;;;;;;;13.65;8.90;;;;;;;13.06;67.76;96672.09;2079462;28;20236;-58
2023/04/19 16:13:44;;;;;;;15.13;9.00;;;;;;;13.64;65.61;96672.47;2077728;28;20570;-58
2023/04/19 16:14:46;;;;;;;17.83;8.40;;;;;;;13.08;65.17;96672.88;2078591;28;20715;-58
2023/04/19 16:15:47;;;;;;;14.55;8.13;;;;;;;13.66;64.67;96666.22;2077335;28;20201;-58
2023/04/19 16:16:49;;;;;;;14.60;8.60;;;;;;;13.51;64.96;96672.28;2076731;28;20208;-58
2023/04/19 16:17:51;;;;;;;12.90;8.15;;;;;;;13.84;64.88;96671.31;2081934;28;20196;-58
2023/04/19 16:18:52;;;;;;;16.75;8.50;;;;;;;14.22;62.38;96660.38;2078291;28;20197;-58
2023/04/19 16:19:54;;;;;;;13.23;8.95;;;;;;;13.93;61.59;96667.31;2077204;28;20202;-58
2023/04/19 16:20:55;;;;;;;17.70;7.82;;;;;;;13.73;62.95;96676.38;2078141;28;20288;-58
2023/04/19 16:22:00;;;;;;;11.63;7.78;;;;;;;13.97;63.00;96671.47;2078606;28;20279;-58
2023/04/19 16:23:02;;;;;;;9.35;7.15;;;;;;;14.10;63.08;96672.44;2077644;28;20724;-59
2023/04/19 16:24:04;;;;;;;14.25;7.82;;;;;;;14.43;62.43;96675.81;2078727;28;20209;-58
2023/04/19 16:25:06;;;;;;;15.25;8.05;;;;;;;14.65;61.39;96672.75;2077479;28;20280;-58
2023/04/19 16:26:07;;;;;;;12.25;6.57;;;;;;;14.44;61.37;96677.50;2077477;28;20219;-58
2023/04/19 16:27:09;;;;;;;17.50;9.10;;;;;;;15.08;59.87;96675.34;2077861;28;20221;-58
2023/04/19 16:28:10;;;;;;;14.65;9.13;;;;;;;14.11;61.74;96671.50;2077355;28;20233;-58
2023/04/19 16:29:12;;;;;;;15.73;7.45;;;;;;;14.19;62.28;96668.44;2079647;28;20576;-59
2023/04/19 16:30:15;;;;;;;16.33;7.40;;;;;;;14.07;63.06;96677.03;2079136;28;20232;-59
2023/04/19 16:31:17;;;;;;;16.13;8.13;;;;;;;13.52;63.69;96671.38;2078474;28;20229;-59
2023/04/19 16:32:18;;;;;;;17.67;7.28;;;;;;;13.52;63.56;96669.59;2077256;28;20197;-59
2023/04/19 16:33:20;;;;;;;12.30;7.43;;;;;;;13.09;64.39;96671.97;2079455;28;20198;-59
2023/04/19 16:34:23;;;;;;;12.27;7.43;;;;;;;13.03;63.70;96672.28;2077734;28;20220;-59
2023/04/19 16:35:26;;;;;;;9.57;7.30;;;;;;;12.58;64.10;96667.63;2076873;28;20578;-62
2023/04/19 16:36:27;;;;;;;19.15;8.15;;;;;;;12.51;64.85;96674.09;2078610;28;20355;-59
